Time;durP1;ratioP1;P1;durP2;ratioP2;P2;SDS_P1;SDS_P2;PMS_P1;PMS_P2;Temp;Humidity;BMP_temperature;BMP_pressure;BME280_temperature;BME280_humidity;BME280_pressure;Samples;Min_cycle;Max_cycle;Signal;HPM_P1;HPM_P2
2021/01/27 00:03:51;;;;;;;3.57;3.37;;;3.30;93.30;;;;;;10325699;28;20314;-81
2021/01/27 00:08:53;;;;;;;4.10;3.67;;;3.30;93.60;;;;;;10326751;28;20250;-84
2021/01/27 00:13:55;;;;;;;4.20;3.90;;;3.40;93.50;;;;;;10356334;28;20361;-82
2021/01/27 00:18:56;;;;;;;6.17;4.33;;;3.40;93.30;;;;;;10366596;28;20690;-83
2021/01/27 00:23:59;;;;;;;5.73;4.10;;;3.40;93.50;;;;;;10366810;28;20307;-82
2021/01/27 00:29:01;;;;;;;6.83;5.00;;;3.40;93.20;;;;;;10369294;28;20549;-83
2021/01/27 00:34:02;;;;;;;4.93;4.53;;;3.40;93.20;;;;;;10354720;28;20254;-82
2021/01/27 00:39:05;;;;;;;5.63;5.10;;;3.40;93.20;;;;;;10365006;28;20222;-83
2021/01/27 00:44:07;;;;;;;5.00;4.60;;;3.40;93.40;;;;;;10347866;28;20223;-82
2021/01/27 00:49:08;;;;;;;4.93;4.40;;;3.30;93.60;;;;;;10326663;28;20191;-83
2021/01/27 00:54:11;;;;;;;5.03;4.63;;;3.20;93.90;;;;;;10315952;28;20231;-83
2021/01/27 00:59:14;;;;;;;5.10;4.60;;;3.20;94.20;;;;;;10338245;28;20281;-82
2021/01/27 01:04:17;;;;;;;5.40;4.90;;;3.30;94.20;;;;;;10340315;28;20329;-82
2021/01/27 01:09:20;;;;;;;5.83;5.33;;;3.30;94.40;;;;;;10323798;28;20599;-81
2021/01/27 01:14:21;;;;;;;5.70;5.07;;;3.20;94.30;;;;;;10323448;28;20295;-80
2021/01/27 01:19:23;;;;;;;6.20;5.60;;;3.20;95.00;;;;;;10306425;28;20760;-82
2021/01/27 01:24:25;;;;;;;6.13;5.63;;;3.20;95.10;;;;;;10322817;28;20549;-83
2021/01/27 01:29:27;;;;;;;5.93;5.43;;;3.30;95.20;;;;;;10323632;28;20682;-84
2021/01/27 01:34:29;;;;;;;6.10;5.60;;;3.40;95.20;;;;;;10307088;28;20250;-81
2021/01/27 01:39:31;;;;;;;5.17;4.70;;;3.40;95.10;;;;;;10329901;28;20250;-84
2021/01/27 01:44:33;;;;;;;5.67;5.00;;;3.40;95.40;;;;;;10309784;28;20232;-83
2021/01/27 01:49:34;;;;;;;6.13;5.50;;;3.50;95.30;;;;;;10343432;28;20215;-83
2021/01/27 01:54:41;;;;;;;5.77;5.27;;;3.50;94.80;;;;;;10352327;28;20683;-83
2021/01/27 01:59:48;;;;;;;6.00;5.40;;;3.40;94.60;;;;;;10349787;28;20218;-82
2021/01/27 02:04:53;;;;;;;6.80;5.57;;;3.50;94.60;;;;;;10346166;28;20227;-81
2021/01/27 02:09:56;;;;;;;5.53;5.03;;;3.50;94.40;;;;;;10366194;28;20234;-82
2021/01/27 02:15:15;;;;;;;4.80;4.40;;;3.50;94.50;;;;;;10350888;28;20215;-83
2021/01/27 02:20:43;;;;;;;6.40;5.80;;;3.50;94.20;;;;;;10351275;28;20208;-83
2021/01/27 02:26:11;;;;;;;6.30;5.37;;;3.50;94.10;;;;;;10337040;28;20225;-80
2021/01/27 02:31:17;;;;;;;8.40;6.70;;;3.40;94.40;;;;;;10332899;28;20580;-81
2021/01/27 02:36:24;;;;;;;5.70;5.27;;;3.30;94.70;;;;;;10353142;28;20226;-82
2021/01/27 02:41:33;;;;;;;5.80;5.20;;;3.30;94.80;;;;;;10400233;28;20218;-81
2021/01/27 02:46:41;;;;;;;5.50;5.00;;;3.30;95.10;;;;;;10379404;28;20311;-81
2021/01/27 02:51:49;;;;;;;5.40;4.90;;;3.40;95.20;;;;;;10395176;28;20210;-81
2021/01/27 02:56:57;;;;;;;5.90;5.47;;;3.40;95.40;;;;;;10379372;28;20195;-81
2021/01/27 03:02:04;;;;;;;5.97;5.47;;;3.50;95.60;;;;;;10378793;28;20248;-80
2021/01/27 03:07:08;;;;;;;5.83;5.33;;;3.50;95.70;;;;;;10377043;28;20199;-82
2021/01/27 03:12:10;;;;;;;5.93;5.43;;;3.60;95.80;;;;;;10376534;28;20247;-81
2021/01/27 03:17:15;;;;;;;6.40;5.83;;;3.60;95.80;;;;;;10392676;28;20697;-81
2021/01/27 03:22:23;;;;;;;5.60;5.10;;;3.70;95.70;;;;;;10376490;28;20268;-80
2021/01/27 03:27:30;;;;;;;6.50;5.47;;;3.70;95.70;;;;;;10391859;28;20589;-83
2021/01/27 03:32:39;;;;;;;6.37;5.87;;;3.80;95.90;;;;;;10392511;28;20763;-82
2021/01/27 03:37:47;;;;;;;6.13;5.53;;;3.80;95.90;;;;;;10360714;28;20348;-81
2021/01/27 03:42:56;;;;;;;5.87;5.37;;;3.80;95.70;;;;;;10375863;28;20868;-82
2021/01/27 03:48:06;;;;;;;5.30;4.90;;;3.90;95.80;;;;;;10381505;28;20216;-80
2021/01/27 03:53:14;;;;;;;6.63;6.03;;;3.90;95.80;;;;;;10373524;28;20211;-82
2021/01/27 03:58:21;;;;;;;5.40;4.90;;;3.90;95.70;;;;;;10375915;28;20187;-81
2021/01/27 04:03:23;;;;;;;5.33;4.40;;;3.90;95.30;;;;;;10390581;28;20281;-82
2021/01/27 04:08:26;;;;;;;5.40;4.90;;;3.90;95.00;;;;;;10391047;28;20655;-84
2021/01/27 04:13:29;;;;;;;5.80;5.20;;;3.90;95.40;;;;;;10374708;28;20211;-83
2021/01/27 04:18:31;;;;;;;9.00;6.93;;;3.90;95.20;;;;;;10374131;28;20290;-82
2021/01/27 04:23:34;;;;;;;7.00;6.40;;;4.00;95.10;;;;;;10374008;28;20241;-81
2021/01/27 04:28:35;;;;;;;5.03;4.43;;;3.90;94.30;;;;;;10372765;28;20199;-81
2021/01/27 04:33:38;;;;;;;4.60;4.20;;;3.80;94.50;;;;;;10373499;28;20249;-81
2021/01/27 04:38:41;;;;;;;5.03;4.60;;;3.70;94.50;;;;;;10373894;28;20222;-81
2021/01/27 04:43:44;;;;;;;5.17;4.67;;;3.50;94.70;;;;;;10373348;28;20226;-82
2021/01/27 04:48:55;;;;;;;4.43;4.13;;;3.40;94.90;;;;;;10374059;28;20205;-83
2021/01/27 04:54:12;;;;;;;4.67;4.37;;;3.40;95.20;;;;;;10379842;28;20215;-80
2021/01/27 04:59:19;;;;;;;4.43;4.03;;;3.40;95.60;;;;;;10387582;28;20198;-82
2021/01/27 05:04:48;;;;;;;4.23;3.83;;;3.50;95.30;;;;;;10369823;28;20219;-83
2021/01/27 05:09:56;;;;;;;4.37;3.97;;;3.60;95.40;;;;;;10379600;28;20194;-84
2021/01/27 05:14:59;;;;;;;4.43;4.03;;;3.70;94.90;;;;;;10378115;28;20222;-83
2021/01/27 05:20:01;;;;;;;5.77;4.73;;;3.70;94.60;;;;;;10379133;28;20207;-84
2021/01/27 05:25:05;;;;;;;5.73;4.10;;;3.80;94.70;;;;;;10381703;28;20280;-84
2021/01/27 05:30:12;;;;;;;4.33;3.97;;;3.80;94.40;;;;;;10338276;28;20198;-82
2021/01/27 05:35:25;;;;;;;4.53;4.13;;;3.70;93.50;;;;;;10351110;28;20219;-82
2021/01/27 05:40:33;;;;;;;4.00;3.70;;;3.70;94.20;;;;;;10315070;28;20765;-83
2021/01/27 05:45:40;;;;;;;5.13;4.00;;;3.70;93.90;;;;;;10347499;28;20191;-83
2021/01/27 05:50:43;;;;;;;3.83;3.53;;;3.70;93.50;;;;;;10339108;28;20217;-83
2021/01/27 05:56:01;;;;;;;3.87;3.37;;;3.80;93.80;;;;;;10383111;28;20195;-84
2021/01/27 06:01:22;;;;;;;4.60;4.23;;;3.80;93.20;;;;;;10324170;28;20223;-84
2021/01/27 06:06:26;;;;;;;4.57;4.10;;;3.80;93.40;;;;;;10333956;28;20191;-84
2021/01/27 06:11:28;;;;;;;5.33;4.83;;;3.80;93.60;;;;;;10354386;28;20559;-83
2021/01/27 06:16:34;;;;;;;3.70;3.40;;;3.80;93.80;;;;;;10367136;28;20226;-82
2021/01/27 06:21:46;;;;;;;3.90;3.60;;;3.90;93.20;;;;;;10324086;28;20234;-83
2021/01/27 06:27:35;;;;;;;3.80;3.50;;;3.90;92.90;;;;;;10339824;28;20211;-83
2021/01/27 06:32:58;;;;;;;3.90;3.53;;;3.90;92.50;;;;;;10339726;28;20223;-82
2021/01/27 06:38:31;;;;;;;4.00;3.70;;;3.80;92.40;;;;;;10341166;28;20198;-85
2021/01/27 06:43:59;;;;;;;3.47;3.17;;;3.70;92.10;;;;;;10304721;28;20261;-86
2021/01/27 06:49:33;;;;;;;4.17;3.60;;;3.70;92.10;;;;;;10299583;28;20653;-83
2021/01/27 06:54:57;;;;;;;3.60;3.33;;;3.70;92.30;;;;;;10328276;28;20564;-82
2021/01/27 07:00:41;;;;;;;3.80;3.50;;;3.70;92.00;;;;;;10379652;28;20214;-83
2021/01/27 07:06:10;;;;;;;3.20;3.00;;;3.70;92.00;;;;;;10342497;28;20297;-82
2021/01/27 07:11:23;;;;;;;4.07;3.60;;;3.60;92.00;;;;;;10356352;28;20365;-81
2021/01/27 07:16:40;;;;;;;3.57;3.30;;;3.60;91.90;;;;;;10377496;28;20661;-81
2021/01/27 07:21:51;;;;;;;3.87;3.57;;;3.60;92.00;;;;;;10377053;28;20269;-82
2021/01/27 07:26:59;;;;;;;4.17;3.77;;;3.60;92.00;;;;;;10377627;28;20206;-82
2021/01/27 07:32:08;;;;;;;4.30;3.90;;;3.60;92.40;;;;;;10353387;28;20342;-81
2021/01/27 07:37:18;;;;;;;3.33;3.13;;;3.70;92.60;;;;;;10318867;28;20270;-83
2021/01/27 07:42:23;;;;;;;3.23;2.90;;;3.70;92.00;;;;;;10344242;28;20229;-83
2021/01/27 07:47:41;;;;;;;3.53;3.23;;;3.80;92.90;;;;;;10340934;28;20286;-83
2021/01/27 07:53:05;;;;;;;3.83;3.10;;;3.80;92.90;;;;;;10350953;28;20218;-83
2021/01/27 07:58:11;;;;;;;6.00;3.40;;;3.80;93.40;;;;;;10352695;28;20204;-80
2021/01/27 08:03:39;;;;;;;2.67;2.30;;;3.90;94.10;;;;;;10362295;28;20227;-83
2021/01/27 08:08:48;;;;;;;2.83;2.63;;;4.00;94.80;;;;;;10334130;28;20246;-83
2021/01/27 08:13:50;;;;;;;4.20;3.33;;;4.00;95.60;;;;;;10324102;28;20504;-82
2021/01/27 08:19:29;;;;;;;4.20;2.60;;;4.10;95.70;;;;;;10339195;28;20265;-81
2021/01/27 08:24:56;;;;;;;3.90;3.60;;;4.10;95.90;;;;;;10319152;28;20227;-80
2021/01/27 08:30:19;;;;;;;3.80;3.50;;;4.10;96.00;;;;;;10332941;28;20226;-82
2021/01/27 08:35:58;;;;;;;3.60;3.30;;;4.00;96.20;;;;;;10315507;28;20200;-82
2021/01/27 08:41:01;;;;;;;4.97;3.80;;;3.90;97.10;;;;;;10331874;28;20623;-83
2021/01/27 08:46:27;;;;;;;4.90;3.60;;;3.90;97.30;;;;;;10344959;28;20191;-82
2021/01/27 08:51:50;;;;;;;3.90;3.60;;;3.90;97.50;;;;;;10332033;28;20211;-83
2021/01/27 08:57:23;;;;;;;3.43;3.13;;;3.70;97.80;;;;;;10349262;28;20211;-81
2021/01/27 09:02:49;;;;;;;3.83;3.53;;;3.70;97.80;;;;;;10317661;28;20231;-82
2021/01/27 09:07:53;;;;;;;4.30;3.90;;;3.80;98.10;;;;;;10339102;28;20675;-83
2021/01/27 09:12:55;;;;;;;3.60;3.30;;;3.80;98.30;;;;;;10332948;28;20323;-82
2021/01/27 09:17:59;;;;;;;3.80;3.50;;;3.70;98.30;;;;;;10334293;28;20194;-81
2021/01/27 09:23:04;;;;;;;3.77;3.43;;;3.70;99.00;;;;;;10337960;28;20310;-83
2021/01/27 09:28:09;;;;;;;5.63;4.53;;;3.70;98.60;;;;;;10364243;28;20656;-82
2021/01/27 09:33:12;;;;;;;3.93;3.63;;;3.70;99.00;;;;;;10344811;28;20210;-83
2021/01/27 09:38:19;;;;;;;4.10;3.70;;;3.70;99.10;;;;;;10347904;28;20199;-82
2021/01/27 09:43:23;;;;;;;4.03;3.73;;;3.70;99.00;;;;;;10347288;28;20706;-83
2021/01/27 09:48:26;;;;;;;3.43;3.13;;;3.70;99.30;;;;;;10344343;28;20619;-82
2021/01/27 09:53:34;;;;;;;6.00;4.03;;;3.70;99.70;;;;;;10346722;28;20211;-83
2021/01/27 09:58:40;;;;;;;3.53;3.23;;;3.70;99.50;;;;;;10362970;28;20195;-83
2021/01/27 10:03:43;;;;;;;5.17;3.63;;;3.70;99.70;;;;;;10350624;28;20276;-83
2021/01/27 10:08:53;;;;;;;3.90;3.60;;;3.60;99.60;;;;;;10368273;28;20196;-83
2021/01/27 10:14:00;;;;;;;4.17;3.77;;;3.50;99.40;;;;;;10346332;28;20226;-83
2021/01/27 10:19:06;;;;;;;2.90;2.70;;;3.40;99.90;;;;;;10314423;28;20199;-84
2021/01/27 10:24:08;;;;;;;4.87;4.47;;;3.30;99.90;;;;;;10333806;28;20215;-84
2021/01/27 10:29:19;;;;;;;4.33;3.77;;;3.20;99.90;;;;;;10331568;28;20203;-83
2021/01/27 10:34:41;;;;;;;3.47;3.27;;;3.20;99.90;;;;;;10332879;28;20289;-83
2021/01/27 10:39:43;;;;;;;3.20;3.00;;;3.30;99.90;;;;;;10349151;28;20203;-82
2021/01/27 10:44:45;;;;;;;4.33;2.90;;;3.40;99.90;;;;;;10332911;28;20662;-84
2021/01/27 10:49:49;;;;;;;3.20;3.00;;;3.50;99.90;;;;;;10316714;28;20282;-82
2021/01/27 10:54:53;;;;;;;3.00;2.90;;;3.70;99.90;;;;;;10333643;28;20257;-84
2021/01/27 10:59:56;;;;;;;3.20;2.90;;;3.70;99.90;;;;;;10333881;28;20215;-83
2021/01/27 11:04:58;;;;;;;3.70;3.40;;;3.70;99.90;;;;;;10361009;28;20219;-84
2021/01/27 11:10:00;;;;;;;4.77;3.20;;;3.70;99.90;;;;;;10347063;28;20219;-83
2021/01/27 11:15:03;;;;;;;3.80;3.60;;;3.60;99.90;;;;;;10373644;28;20222;-84
2021/01/27 11:20:06;;;;;;;3.70;3.40;;;3.80;99.90;;;;;;10379552;28;20741;-84
2021/01/27 11:25:09;;;;;;;3.80;3.50;;;3.80;99.90;;;;;;10364154;28;20222;-82
2021/01/27 11:30:13;;;;;;;4.53;4.23;;;3.80;99.90;;;;;;10370040;28;20195;-82
2021/01/27 11:35:16;;;;;;;4.60;4.20;;;3.90;99.90;;;;;;10363867;28;20257;-82
2021/01/27 11:40:20;;;;;;;3.33;3.13;;;3.90;99.90;;;;;;10376580;28;20280;-82
2021/01/27 11:45:24;;;;;;;4.47;4.17;;;4.00;99.90;;;;;;10361743;28;20695;-82
2021/01/27 11:50:28;;;;;;;3.83;3.50;;;4.10;99.90;;;;;;10354937;28;20294;-82
2021/01/27 11:55:30;;;;;;;3.00;2.80;;;4.20;99.90;;;;;;10371585;28;20210;-82
2021/01/27 12:00:32;;;;;;;3.17;2.90;;;4.20;99.90;;;;;;10347646;28;20246;-82
2021/01/27 12:05:35;;;;;;;3.13;2.90;;;4.20;99.90;;;;;;10344876;28;20196;-82
2021/01/27 12:10:37;;;;;;;4.77;3.03;;;4.20;99.90;;;;;;10344890;28;20243;-82
2021/01/27 12:15:43;;;;;;;3.10;2.90;;;4.20;99.90;;;;;;10345977;28;20584;-82
2021/01/27 12:20:46;;;;;;;2.53;2.33;;;4.20;99.90;;;;;;10352356;28;20223;-82
2021/01/27 12:25:48;;;;;;;3.20;3.00;;;4.20;99.90;;;;;;10346594;28;20262;-82
2021/01/27 12:30:51;;;;;;;3.20;2.90;;;4.20;99.90;;;;;;10333380;28;20616;-83
2021/01/27 12:35:52;;;;;;;6.33;2.90;;;4.20;99.90;;;;;;10321795;28;20286;-82
2021/01/27 12:40:54;;;;;;;2.80;2.70;;;4.30;99.90;;;;;;10340153;28;20710;-82
2021/01/27 12:45:57;;;;;;;2.03;1.93;;;4.20;99.90;;;;;;10320898;28;20277;-82
2021/01/27 12:50:59;;;;;;;2.50;2.40;;;4.20;99.90;;;;;;10334519;28;20225;-81
2021/01/27 12:56:01;;;;;;;3.47;3.17;;;4.30;99.90;;;;;;10338330;28;20199;-81
2021/01/27 13:01:03;;;;;;;2.60;2.40;;;4.30;99.90;;;;;;10340473;28;20281;-82
2021/01/27 13:06:05;;;;;;;3.27;3.07;;;4.30;99.90;;;;;;10352847;28;20254;-81
2021/01/27 13:11:07;;;;;;;3.10;2.73;;;4.20;99.90;;;;;;10356285;28;20219;-82
2021/01/27 13:16:10;;;;;;;3.03;2.83;;;4.20;99.90;;;;;;10362126;28;20192;-82
2021/01/27 13:21:11;;;;;;;3.97;3.40;;;4.00;99.90;;;;;;10359223;28;20245;-81
2021/01/27 13:26:13;;;;;;;6.20;3.30;;;4.00;99.90;;;;;;10341203;28;20262;-82
2021/01/27 13:31:16;;;;;;;3.73;3.43;;;4.00;99.90;;;;;;10342010;28;20215;-82
2021/01/27 13:36:18;;;;;;;3.80;3.60;;;4.00;99.90;;;;;;10360693;28;20615;-81
2021/01/27 13:41:20;;;;;;;3.90;3.60;;;4.10;99.90;;;;;;10360336;28;20647;-81
2021/01/27 13:46:23;;;;;;;4.13;3.63;;;4.10;99.90;;;;;;10340417;28;20199;-81
2021/01/27 13:51:25;;;;;;;3.60;3.40;;;4.20;99.90;;;;;;10359958;28;20211;-82
2021/01/27 13:56:27;;;;;;;3.33;3.17;;;4.20;99.90;;;;;;10342614;28;20215;-81
2021/01/27 14:01:32;;;;;;;4.57;4.17;;;4.20;99.90;;;;;;10363792;28;20222;-82
2021/01/27 14:06:34;;;;;;;4.13;3.83;;;4.20;99.90;;;;;;10362347;28;20637;-82
2021/01/27 14:11:36;;;;;;;5.40;4.90;;;4.20;99.90;;;;;;10362370;28;20215;-82
2021/01/27 14:16:38;;;;;;;4.80;4.43;;;4.20;99.90;;;;;;10374634;28;20199;-82
2021/01/27 14:21:42;;;;;;;4.13;3.83;;;4.20;99.90;;;;;;10365400;28;20654;-82
2021/01/27 14:26:44;;;;;;;4.80;4.40;;;4.20;99.90;;;;;;10362024;28;20198;-81
2021/01/27 14:31:46;;;;;;;4.30;4.00;;;4.30;99.90;;;;;;10360496;28;20207;-81
2021/01/27 14:36:48;;;;;;;4.73;4.43;;;4.20;99.90;;;;;;10345130;28;20194;-81
2021/01/27 14:41:50;;;;;;;4.83;4.43;;;4.20;99.90;;;;;;10375281;28;20226;-81
2021/01/27 14:46:53;;;;;;;4.47;4.17;;;4.30;99.90;;;;;;10343725;28;20199;-81
2021/01/27 14:51:55;;;;;;;4.73;4.33;;;4.30;99.90;;;;;;10379662;28;20218;-82
2021/01/27 14:57:00;;;;;;;4.43;4.13;;;4.30;99.90;;;;;;10363307;28;20202;-82
2021/01/27 15:02:02;;;;;;;4.63;4.23;;;4.40;99.90;;;;;;10337898;28;20710;-82
2021/01/27 15:07:04;;;;;;;5.30;4.80;;;4.40;99.90;;;;;;10350733;28;21207;-81
2021/01/27 15:12:07;;;;;;;7.00;5.03;;;4.40;99.90;;;;;;10342165;28;20211;-83
2021/01/27 15:17:09;;;;;;;5.13;4.77;;;4.30;99.90;;;;;;10336658;28;20570;-82
2021/01/27 15:22:13;;;;;;;5.57;5.07;;;4.30;99.90;;;;;;10350338;28;20306;-83
2021/01/27 15:27:14;;;;;;;5.00;4.60;;;4.20;99.90;;;;;;10345228;28;20650;-82
2021/01/27 15:32:17;;;;;;;5.10;4.70;;;4.10;99.90;;;;;;10347385;28;20261;-82
2021/01/27 15:37:19;;;;;;;4.83;4.50;;;4.10;99.90;;;;;;10324246;28;20200;-82
2021/01/27 15:42:20;;;;;;;5.30;4.80;;;4.20;99.90;;;;;;10342359;28;20626;-82
2021/01/27 15:47:24;;;;;;;4.50;4.10;;;4.20;99.90;;;;;;10355486;28;20624;-82
2021/01/27 15:52:27;;;;;;;5.30;4.90;;;4.20;99.90;;;;;;10326660;28;20219;-83
2021/01/27 15:57:29;;;;;;;6.07;5.57;;;4.30;99.90;;;;;;10340708;28;20199;-82
2021/01/27 16:02:31;;;;;;;6.10;5.60;;;4.30;99.90;;;;;;10338769;28;20242;-82
2021/01/27 16:07:35;;;;;;;6.10;5.47;;;4.30;99.90;;;;;;10358358;28;20612;-82
2021/01/27 16:12:37;;;;;;;5.50;5.00;;;4.30;99.90;;;;;;10364196;28;20213;-82
2021/01/27 16:17:39;;;;;;;10.63;8.50;;;4.40;99.90;;;;;;10360422;28;20199;-82
2021/01/27 16:22:43;;;;;;;6.83;6.33;;;4.40;99.90;;;;;;10365175;28;20219;-82
2021/01/27 16:27:47;;;;;;;6.03;5.57;;;4.40;99.90;;;;;;10353594;28;20199;-82
2021/01/27 16:32:50;;;;;;;6.57;5.97;;;4.40;99.90;;;;;;10360344;28;20227;-82
2021/01/27 16:37:52;;;;;;;6.23;5.73;;;4.40;99.90;;;;;;10363353;28;20206;-82
2021/01/27 16:42:55;;;;;;;6.57;5.70;;;4.40;99.90;;;;;;10362054;28;20634;-81
2021/01/27 16:47:59;;;;;;;5.97;5.57;;;4.40;99.90;;;;;;10354405;28;20202;-82
2021/01/27 16:53:03;;;;;;;6.67;6.07;;;4.40;99.90;;;;;;10357628;28;20583;-83
2021/01/27 16:58:09;;;;;;;8.17;7.47;;;4.40;99.90;;;;;;10340157;28;20191;-81
2021/01/27 17:03:14;;;;;;;9.03;8.23;;;4.30;99.90;;;;;;10344460;28;20294;-84
2021/01/27 17:08:15;;;;;;;9.03;8.23;;;4.30;99.90;;;;;;10342140;28;20651;-83
2021/01/27 17:13:17;;;;;;;15.63;11.00;;;4.30;99.90;;;;;;10336049;28;20226;-83
2021/01/27 17:18:22;;;;;;;8.30;7.50;;;4.30;99.90;;;;;;10325873;28;20690;-83
2021/01/27 17:23:23;;;;;;;7.50;6.80;;;4.30;99.90;;;;;;10363324;23;20254;-81
2021/01/27 17:28:25;;;;;;;7.93;7.27;;;4.40;99.90;;;;;;10395067;28;20213;-81
2021/01/27 17:33:28;;;;;;;8.50;7.60;;;4.40;99.90;;;;;;10408936;28;20765;-80
2021/01/27 17:38:30;;;;;;;11.63;10.23;;;4.40;99.90;;;;;;10391265;28;20204;-81
2021/01/27 17:43:31;;;;;;;10.80;9.30;;;4.40;99.90;;;;;;10406877;28;20312;-81
2021/01/27 17:48:34;;;;;;;10.97;9.03;;;4.40;99.90;;;;;;10404167;28;20218;-79
2021/01/27 17:53:35;;;;;;;12.03;10.73;;;4.40;99.90;;;;;;10382477;28;20764;-79
2021/01/27 17:58:37;;;;;;;8.33;7.53;;;4.50;99.90;;;;;;10361197;28;20202;-81
2021/01/27 18:03:43;;;;;;;9.33;8.53;;;4.50;99.90;;;;;;10349988;28;20229;-79
2021/01/27 18:08:45;;;;;;;8.27;7.57;;;4.50;99.90;;;;;;10366793;28;20221;-79
2021/01/27 18:13:47;;;;;;;10.50;9.40;;;4.50;99.90;;;;;;10381576;28;20627;-79
2021/01/27 18:18:50;;;;;;;9.03;8.13;;;4.50;99.90;;;;;;10382952;28;20284;-79
2021/01/27 18:23:52;;;;;;;16.00;13.27;;;4.60;99.90;;;;;;10368791;28;20238;-80
2021/01/27 18:28:55;;;;;;;9.20;8.30;;;4.50;99.90;;;;;;10349330;28;20911;-80
2021/01/27 18:33:57;;;;;;;9.47;8.67;;;4.60;99.90;;;;;;10367984;28;20261;-79
2021/01/27 18:38:59;;;;;;;10.00;8.40;;;4.50;99.90;;;;;;10369904;28;20257;-80
2021/01/27 18:44:01;;;;;;;7.93;7.23;;;4.50;99.90;;;;;;10352109;28;20252;-80
2021/01/27 18:49:03;;;;;;;9.63;8.47;;;4.60;99.90;;;;;;10359691;28;20445;-80
2021/01/27 18:54:06;;;;;;;10.47;9.57;;;4.60;99.90;;;;;;10365227;28;20227;-80
2021/01/27 18:59:08;;;;;;;9.97;8.97;;;4.50;99.90;;;;;;10345481;28;20553;-81
2021/01/27 19:04:11;;;;;;;8.63;7.73;;;4.50;99.90;;;;;;10378788;28;20969;-82
2021/01/27 19:09:12;;;;;;;8.53;7.63;;;4.50;99.90;;;;;;10366817;28;20210;-79
2021/01/27 19:14:14;;;;;;;8.33;7.53;;;4.50;99.90;;;;;;10351565;28;20693;-80
2021/01/27 19:19:17;;;;;;;7.43;6.90;;;4.50;99.90;;;;;;10371292;28;20530;-81
2021/01/27 19:24:18;;;;;;;5.37;4.97;;;4.50;99.90;;;;;;10376111;28;20285;-79
2021/01/27 19:29:20;;;;;;;5.30;4.80;;;4.50;99.90;;;;;;10375331;28;20207;-82
2021/01/27 19:34:29;;;;;;;5.57;5.13;;;4.60;99.90;;;;;;10395700;28;20210;-79
2021/01/27 19:39:31;;;;;;;5.70;5.30;;;4.60;99.90;;;;;;10372092;28;20621;-80
2021/01/27 19:44:33;;;;;;;6.00;5.53;;;4.60;99.90;;;;;;10363578;28;20295;-79
2021/01/27 19:49:36;;;;;;;6.90;6.40;;;4.60;99.90;;;;;;10376140;28;20198;-79
2021/01/27 19:54:38;;;;;;;7.13;6.50;;;4.70;99.90;;;;;;10362434;28;20225;-81
2021/01/27 19:59:39;;;;;;;6.27;5.70;;;4.80;99.90;;;;;;10364959;28;20239;-80
2021/01/27 20:04:42;;;;;;;6.90;6.40;;;4.80;99.90;;;;;;10368446;28;20254;-80
2021/01/27 20:09:43;;;;;;;6.97;6.30;;;4.70;99.90;;;;;;10364682;28;20198;-79
2021/01/27 20:14:59;;;;;;;7.00;6.23;;;4.80;99.90;;;;;;10363605;28;20214;-80
2021/01/27 20:20:07;;;;;;;8.10;7.40;;;4.80;99.90;;;;;;10350585;28;20350;-80
2021/01/27 20:25:10;;;;;;;10.90;9.90;;;4.90;99.90;;;;;;10360966;28;20300;-79
2021/01/27 20:30:12;;;;;;;10.43;9.53;;;4.90;99.90;;;;;;10356228;28;20194;-80
2021/01/27 20:35:15;;;;;;;10.33;9.47;;;4.90;99.90;;;;;;10359150;28;20670;-81
2021/01/27 20:40:20;;;;;;;13.30;10.23;;;4.80;99.90;;;;;;10360142;28;20226;-79
2021/01/27 20:45:24;;;;;;;8.90;8.17;;;4.80;99.90;;;;;;10360993;28;20270;-80
2021/01/27 20:50:28;;;;;;;9.50;8.70;;;4.70;99.90;;;;;;10347400;28;20206;-80
2021/01/27 20:55:31;;;;;;;8.90;8.20;;;4.60;99.90;;;;;;10347239;28;20248;-81
2021/01/27 21:00:34;;;;;;;9.83;9.00;;;4.60;99.90;;;;;;10347915;28;20241;-81
2021/01/27 21:05:37;;;;;;;9.10;8.30;;;4.70;99.90;;;;;;10345218;28;20713;-81
2021/01/27 21:10:42;;;;;;;10.03;8.97;;;4.70;99.90;;;;;;10337095;28;20249;-81
2021/01/27 21:15:49;;;;;;;8.43;7.73;;;4.80;99.90;;;;;;10355475;28;20574;-80
2021/01/27 21:20:52;;;;;;;8.50;7.80;;;4.80;99.90;;;;;;10363035;28;20699;-80
2021/01/27 21:25:54;;;;;;;9.63;8.83;;;4.90;99.90;;;;;;10339561;28;20237;-80
2021/01/27 21:30:56;;;;;;;9.40;8.50;;;4.90;99.90;;;;;;10354145;28;20252;-79
2021/01/27 21:36:00;;;;;;;8.93;8.13;;;4.90;99.90;;;;;;10360131;28;20851;-82
2021/01/27 21:41:06;;;;;;;6.47;5.97;;;4.80;99.90;;;;;;10367205;28;20214;-80
2021/01/27 21:46:08;;;;;;;6.87;6.27;;;4.80;99.90;;;;;;10376970;28;20579;-80
2021/01/27 21:51:18;;;;;;;5.50;5.00;;;4.80;99.90;;;;;;10362539;28;20198;-81
2021/01/27 21:56:22;;;;;;;5.73;5.23;;;4.80;99.90;;;;;;10385424;28;20233;-81
2021/01/27 22:01:23;;;;;;;6.07;5.57;;;4.80;99.90;;;;;;10363518;28;20229;-81
2021/01/27 22:06:26;;;;;;;6.00;5.50;;;4.80;99.90;;;;;;10346569;28;20317;-80
2021/01/27 22:11:28;;;;;;;5.70;5.20;;;4.90;99.90;;;;;;10362728;28;20225;-79
2021/01/27 22:16:29;;;;;;;5.83;5.40;;;4.90;99.90;;;;;;10345668;28;20209;-81
2021/01/27 22:21:32;;;;;;;5.40;5.00;;;4.90;99.90;;;;;;10328628;28;20233;-81
2021/01/27 22:26:33;;;;;;;5.57;5.17;;;4.90;99.90;;;;;;10362012;28;20209;-80
2021/01/27 22:31:35;;;;;;;5.10;4.73;;;4.90;99.90;;;;;;10359979;28;20769;-80
2021/01/27 22:36:38;;;;;;;5.03;4.60;;;5.00;99.90;;;;;;10356915;28;20622;-80
2021/01/27 22:41:40;;;;;;;5.07;4.67;;;5.10;99.90;;;;;;10361918;28;20250;-82
2021/01/27 22:46:43;;;;;;;4.87;4.57;;;5.10;99.90;;;;;;10360943;28;20637;-80
2021/01/27 22:51:47;;;;;;;5.37;4.97;;;5.10;99.90;;;;;;10366832;28;20238;-79
2021/01/27 22:56:49;;;;;;;5.00;4.60;;;5.10;99.90;;;;;;10370092;28;20217;-80
2021/01/27 23:01:51;;;;;;;5.30;4.90;;;5.10;99.90;;;;;;10374155;28;20222;-80
2021/01/27 23:06:53;;;;;;;5.37;4.97;;;5.10;99.90;;;;;;10373224;28;20199;-80
2021/01/27 23:11:55;;;;;;;5.20;4.80;;;5.20;99.90;;;;;;10371219;28;20293;-80
2021/01/27 23:16:56;;;;;;;4.70;4.30;;;5.20;99.90;;;;;;10374040;28;20191;-82
2021/01/27 23:21:59;;;;;;;4.00;3.70;;;5.30;99.90;;;;;;10392802;23;20224;-82
2021/01/27 23:27:01;;;;;;;4.43;4.13;;;5.30;99.90;;;;;;10375634;28;20199;-82
2021/01/27 23:32:03;;;;;;;4.00;3.57;;;5.30;99.90;;;;;;10361543;28;20214;-80
2021/01/27 23:37:05;;;;;;;5.43;4.90;;;5.20;99.90;;;;;;10361354;28;20777;-80
2021/01/27 23:42:07;;;;;;;4.20;3.90;;;5.30;99.90;;;;;;10345271;28;20219;-80
2021/01/27 23:47:08;;;;;;;5.30;4.90;;;5.20;99.90;;;;;;10357851;28;20562;-80
2021/01/27 23:52:11;;;;;;;5.50;5.00;;;5.20;99.90;;;;;;10354860;28;20233;-80
2021/01/27 23:57:13;;;;;;;5.67;5.27;;;5.30;99.90;;;;;;10330775;28;20202;-79
